LFML/MRS METAR and TAF weather

Enter ICAO airport designator
Station Type Date Time Source
LFML METAR 2019/09/21 05:00 UTC NOAA

LFML 210500Z AUTO 13006KT CAVOK 20/11 Q1018 TEMPO FEW030CB BKN040


Station Type Date Time Source
LFML Decoded METAR 2019/09/21 05:00 UTC NOAA

Marseille / Marignane, France (LFML) 43-27N 005-14E 36M
Sep 21, 2019 - 01:00 AM EDT / 2019.09.21 0500 UTC
Wind: from the SE (130 degrees) at 7 MPH (6 KT):0
Visibility: greater than 7 mile(s):0
Weather: Cumulonimbus clouds observed
Temperature: 68 F (20 C)
Dew Point: 51 F (11 C)
Relative Humidity: 56%
Pressure (altimeter): 30.06 in. Hg (1018 hPa)
ob: LFML 210500Z AUTO 13006KT CAVOK 20/11 Q1018 TEMPO FEW030CB BKN040
cycle: 5

Station Type Date Time Source
LFML TAF 2019/09/21 03:24 UTC NOAA

TAF TAF LFML 210200Z 2103/2209 VRB05KT CAVOK TX26/2112Z TN19/2103Z
BECMG 2105/2107 12013KT
TEMPO 2117/2121 10020G30KT
TEMPO 2106/2121 FEW030CB BKN040
TEMPO 2112/2204 SHRA PROB40
TEMPO 2112/2121 VRB15G30KT 3000 TSRA SCT030CB
TEMPO 2203/2209 BKN030

Example: see airport list